Time;durP1;ratioP1;P1;durP2;ratioP2;P2;SDS_P1;SDS_P2;PMS_P1;PMS_P2;Temp;Humidity;BMP_temperature;BMP_pressure;BME280_temperature;BME280_humidity;BME280_pressure;Samples;Min_cycle;Max_cycle;Signal;HPM_P1;HPM_P2
2023/04/06 00:02:40;;;;;;;8.87;4.80;;;;;;;9.11;35.85;101126.50;4987021;28;20045;-82
2023/04/06 00:05:35;;;;;;;14.10;6.18;;;;;;;9.01;36.26;101122.03;4984745;28;20045;-82
2023/04/06 00:08:30;;;;;;;6.03;4.20;;;;;;;9.05;36.83;101123.06;4998042;28;20042;-82
2023/04/06 00:11:24;;;;;;;7.50;4.30;;;;;;;9.07;36.36;101120.88;4997572;28;20776;-83
2023/04/06 00:14:16;;;;;;;6.63;4.53;;;;;;;9.07;36.26;101122.75;4998974;28;20049;-83
2023/04/06 00:17:11;;;;;;;6.78;4.38;;;;;;;9.07;35.80;101118.16;4969623;28;20101;-82
2023/04/06 00:20:05;;;;;;;7.07;4.17;;;;;;;9.06;36.03;101110.28;4967435;28;20406;-83
2023/04/06 00:23:00;;;;;;;5.83;3.73;;;;;;;9.02;36.30;101112.81;4980101;28;20054;-83
2023/04/06 00:25:55;;;;;;;10.85;4.32;;;;;;;9.12;36.15;101117.25;4982524;28;20058;-83
2023/04/06 00:28:49;;;;;;;8.75;4.53;;;;;;;9.09;36.26;101107.81;4979633;28;20041;-82
2023/04/06 00:31:44;;;;;;;6.50;3.95;;;;;;;9.05;35.67;101101.34;4986272;28;20041;-82
2023/04/06 00:34:38;;;;;;;5.60;3.15;;;;;;;8.93;36.33;101101.00;4994877;28;20053;-81
2023/04/06 00:37:30;;;;;;;6.90;3.90;;;;;;;8.85;36.23;101113.31;5000310;28;20691;-82
2023/04/06 00:40:25;;;;;;;10.43;4.18;;;;;;;8.65;36.66;101104.66;4998725;28;20046;-81
2023/04/06 00:43:20;;;;;;;10.80;5.63;;;;;;;8.73;36.50;101093.19;4997002;28;20053;-81
2023/04/06 00:46:12;;;;;;;7.30;4.25;;;;;;;8.88;36.55;101103.81;5000480;28;20065;-81
2023/04/06 00:49:06;;;;;;;13.18;4.72;;;;;;;9.01;36.29;101105.75;4998793;28;20041;-82
2023/04/06 00:52:01;;;;;;;6.50;4.18;;;;;;;9.13;36.64;101097.19;5001434;28;20069;-82
2023/04/06 00:54:55;;;;;;;9.63;4.53;;;;;;;9.14;36.55;101099.59;4986506;28;20049;-82
2023/04/06 00:57:50;;;;;;;5.90;4.03;;;;;;;9.05;36.30;101097.81;4997392;28;20049;-81
2023/04/06 01:00:44;;;;;;;8.82;3.70;;;;;;;8.99;36.33;101091.69;4990617;28;20041;-82
2023/04/06 01:03:42;;;;;;;7.63;4.38;;;;;;;8.94;36.83;101099.88;4989169;28;20057;-82
2023/04/06 01:06:40;;;;;;;7.13;3.60;;;;;;;8.93;37.06;101098.31;5006532;28;20410;-82
2023/04/06 01:09:35;;;;;;;9.73;4.57;;;;;;;8.85;36.65;101098.94;5003064;28;20508;-81
2023/04/06 01:12:32;;;;;;;7.82;4.65;;;;;;;8.80;36.82;101094.41;4987527;28;20280;-82
2023/04/06 01:15:23;;;;;;;12.27;5.50;;;;;;;8.71;36.97;101093.47;4992076;28;20046;-84
2023/04/06 01:18:17;;;;;;;9.45;4.72;;;;;;;8.74;37.32;101084.72;5003333;28;20045;-84
2023/04/06 01:21:20;;;;;;;11.70;4.63;;;;;;;8.82;36.76;101086.00;5007865;28;20053;-84
2023/04/06 01:24:30;;;;;;;10.10;4.15;;;;;;;8.80;36.59;101085.47;5010756;28;20111;-83
2023/04/06 01:27:42;;;;;;;7.45;4.45;;;;;;;8.78;35.64;101083.06;5007816;28;20046;-84
2023/04/06 01:30:38;;;;;;;7.53;4.40;;;;;;;8.74;35.96;101081.22;5005318;28;20045;-84
2023/04/06 01:33:34;;;;;;;9.35;4.82;;;;;;;8.51;36.86;101081.00;4983814;28;20062;-84
2023/04/06 01:36:31;;;;;;;13.93;4.57;;;;;;;8.17;37.91;101080.34;4973156;28;20053;-84
2023/04/06 01:39:34;;;;;;;6.43;3.88;;;;;;;8.09;37.95;101079.09;4984381;28;20046;-84
2023/04/06 01:42:27;;;;;;;;;;;;;;;7.80;39.02;101082.94;4987834;28;20054;-84
2023/04/06 01:45:22;;;;;;;7.68;4.50;;;;;;;8.18;37.92;101081.94;4971764;28;19914;-84
2023/04/06 01:48:18;;;;;;;7.50;3.78;;;;;;;8.31;37.86;101085.91;4984925;28;20045;-84
2023/04/06 01:51:13;;;;;;;6.68;3.10;;;;;;;8.43;38.56;101080.88;4985442;28;20049;-84
2023/04/06 01:54:13;;;;;;;6.53;3.63;;;;;;;8.42;37.59;101076.53;4981008;28;20422;-82
2023/04/06 01:57:34;;;;;;;8.25;3.97;;;;;;;8.52;36.43;101071.78;4981075;28;20414;-82
2023/04/06 02:00:54;;;;;;;9.65;4.45;;;;;;;8.49;36.79;101075.06;4981781;28;20065;-82
2023/04/06 02:03:47;;;;;;;5.18;3.47;;;;;;;8.50;37.24;101076.69;4970728;28;20054;-82
2023/04/06 02:06:38;;;;;;;9.95;4.15;;;;;;;8.40;37.52;101078.72;4967362;28;20054;-82
2023/04/06 02:09:31;;;;;;;9.23;3.60;;;;;;;8.40;38.16;101076.81;4970414;28;20053;-81
2023/04/06 02:12:23;;;;;;;6.88;3.90;;;;;;;8.27;38.33;101080.22;4984966;28;20054;-82
2023/04/06 02:15:18;;;;;;;11.00;4.63;;;;;;;8.43;37.32;101078.16;4999178;28;20053;-85
2023/04/06 02:18:10;;;;;;;8.77;4.38;;;;;;;8.48;36.30;101073.44;4981426;28;20045;-85
2023/04/06 02:21:06;;;;;;;16.45;4.20;;;;;;;8.43;37.78;101078.16;4979796;28;20045;-85
2023/04/06 02:24:00;;;;;;;7.20;4.43;;;;;;;8.09;39.76;101079.09;4996758;28;20049;-84
2023/04/06 02:26:55;;;;;;;8.13;4.35;;;;;;;7.96;39.15;101076.28;4986832;28;20065;-82
2023/04/06 02:29:45;;;;;;;10.93;4.07;;;;;;;7.71;39.82;101082.78;4983315;28;20053;-83
2023/04/06 02:32:40;;;;;;;18.25;4.03;;;;;;;7.68;39.82;101081.44;4987452;28;20053;-81
2023/04/06 02:35:35;;;;;;;9.57;3.10;;;;;;;7.48;40.75;101081.66;4971885;28;20055;-82
2023/04/06 02:38:29;;;;;;;5.93;3.45;;;;;;;7.67;41.65;101087.13;4984818;28;20410;-82
2023/04/06 02:41:26;;;;;;;13.73;4.05;;;;;;;7.81;41.01;101092.69;4973332;28;20046;-82
2023/04/06 02:44:21;;;;;;;8.32;3.60;;;;;;;7.92;40.02;101094.19;4969922;28;20057;-82
2023/04/06 02:47:13;;;;;;;9.80;3.50;;;;;;;7.98;39.72;101087.59;4982853;28;20119;-82
2023/04/06 02:50:08;;;;;;;13.98;4.28;;;;;;;7.99;39.45;101094.63;4984632;28;20058;-83
2023/04/06 02:53:07;;;;;;;6.82;3.53;;;;;;;8.05;39.04;101093.50;4974779;28;20053;-83
2023/04/06 02:56:02;;;;;;;16.30;4.47;;;;;;;8.05;39.00;101094.31;4985710;28;20054;-82
2023/04/06 02:59:05;;;;;;;10.77;3.70;;;;;;;7.97;38.97;101092.25;4975853;28;20399;-82
2023/04/06 03:01:59;;;;;;;7.60;3.65;;;;;;;7.98;38.47;101091.13;4972361;28;20057;-83
2023/04/06 03:04:55;;;;;;;3.88;2.40;;;;;;;7.80;37.97;101085.66;4983542;28;20541;-82
2023/04/06 03:07:52;;;;;;;7.82;3.70;;;;;;;7.88;38.08;101076.88;4986125;28;20049;-82
2023/04/06 03:10:58;;;;;;;4.35;3.15;;;;;;;7.92;37.78;101077.94;4984611;28;20041;-82
2023/04/06 03:13:55;;;;;;;9.05;3.53;;;;;;;7.90;38.07;101085.53;4986901;28;20054;-82
2023/04/06 03:16:50;;;;;;;10.05;4.00;;;;;;;7.84;38.59;101082.09;4981457;28;20046;-82
2023/04/06 03:19:43;;;;;;;;;;;;;;;7.82;38.93;101078.88;5000566;28;20071;-82
2023/04/06 03:22:38;;;;;;;5.40;3.38;;;;;;;7.60;39.20;101070.44;4998657;28;19918;-82
2023/04/06 03:25:35;;;;;;;8.80;3.28;;;;;;;7.50;39.14;101070.53;4997307;28;20049;-84
2023/04/06 03:28:30;;;;;;;11.30;3.50;;;;;;;7.60;39.19;101073.16;5009941;28;20057;-84
2023/04/06 03:31:22;;;;;;;10.52;3.42;;;;;;;7.70;38.77;101073.84;4998690;28;20052;-84
2023/04/06 03:34:21;;;;;;;7.85;4.10;;;;;;;7.85;37.79;101074.78;5009611;28;20086;-84
2023/04/06 03:37:10;;;;;;;11.90;4.00;;;;;;;7.88;37.72;101063.34;5012483;23;20049;-79
2023/04/06 03:40:09;;;;;;;11.18;3.90;;;;;;;7.96;37.45;101076.28;4956075;28;20061;-79
2023/04/06 03:43:03;;;;;;;11.50;3.03;;;;;;;7.91;38.89;101071.72;4965171;28;20058;-78
2023/04/06 03:45:59;;;;;;;4.20;3.47;;;;;;;7.25;43.15;101075.09;4978591;28;20119;-79
2023/04/06 03:48:54;;;;;;;9.63;4.25;;;;;;;7.20;43.33;101066.22;4969376;28;20046;-79
2023/04/06 03:51:49;;;;;;;23.65;4.45;;;;;;;7.22;42.54;101072.13;4941142;29;20050;-78
2023/04/06 03:54:43;;;;;;;9.15;4.35;;;;;;;7.32;42.27;101069.34;4953900;29;20513;-79
2023/04/06 03:57:38;;;;;;;10.05;3.85;;;;;;;7.45;39.88;101079.53;4956071;28;20046;-78
2023/04/06 04:00:32;;;;;;;12.30;3.83;;;;;;;7.36;39.57;101075.00;4959873;28;20411;-79
2023/04/06 04:03:27;;;;;;;6.07;3.75;;;;;;;7.35;39.64;101073.41;4953870;29;20055;-80
2023/04/06 04:06:21;;;;;;;10.35;4.20;;;;;;;7.17;40.39;101073.00;4954904;28;20171;-80
2023/04/06 04:09:16;;;;;;;9.18;4.35;;;;;;;7.14;39.91;101078.97;4954454;28;20042;-80
2023/04/06 04:12:08;;;;;;;8.70;4.38;;;;;;;7.18;40.19;101074.63;4955726;28;20050;-80
2023/04/06 04:15:03;;;;;;;11.20;4.85;;;;;;;7.28;39.75;101076.41;4965542;28;20055;-79
2023/04/06 04:17:57;;;;;;;12.25;4.97;;;;;;;7.25;40.12;101079.72;4956765;28;20054;-79
2023/04/06 04:20:52;;;;;;;12.98;5.72;;;;;;;7.27;39.51;101080.22;4949191;28;20538;-79
2023/04/06 04:23:47;;;;;;;10.27;4.82;;;;;;;7.25;39.26;101074.31;4950729;28;20054;-77
2023/04/06 04:26:42;;;;;;;17.50;6.55;;;;;;;7.15;39.77;101074.38;4949981;28;20620;-78
2023/04/06 04:29:34;;;;;;;10.50;5.10;;;;;;;7.11;39.35;101073.34;4934513;29;20411;-79
2023/04/06 04:32:31;;;;;;;16.20;6.47;;;;;;;7.23;39.21;101079.16;4951272;28;20059;-79
2023/04/06 04:35:23;;;;;;;11.82;5.15;;;;;;;7.09;39.43;101087.13;4949505;28;20054;-77
2023/04/06 04:38:15;;;;;;;13.38;6.10;;;;;;;7.08;39.48;101088.22;4951296;28;20423;-79
2023/04/06 04:41:08;;;;;;;18.85;7.43;;;;;;;7.14;39.71;101089.00;4937960;29;20103;-79
2023/04/06 04:44:03;;;;;;;30.27;7.30;;;;;;;7.14;39.59;101089.81;4966522;28;20042;-78
2023/04/06 04:46:57;;;;;;;21.13;7.40;;;;;;;7.16;39.81;101092.22;4951565;28;20050;-78
2023/04/06 04:49:59;;;;;;;18.77;5.72;;;;;;;7.05;39.81;101091.50;4957174;28;20042;-78
2023/04/06 04:52:54;;;;;;;22.52;6.47;;;;;;;7.14;39.97;101089.00;4942088;28;20054;-80
2023/04/06 04:55:52;;;;;;;15.27;6.22;;;;;;;7.10;39.84;101080.66;4954261;28;20151;-81
2023/04/06 04:58:46;;;;;;;14.73;6.50;;;;;;;7.08;38.92;101080.09;4936721;29;20046;-79
2023/04/06 05:01:41;;;;;;;18.70;6.68;;;;;;;7.11;39.05;101081.47;4969472;28;20058;-78
2023/04/06 05:04:36;;;;;;;12.13;4.50;;;;;;;7.07;39.57;101091.19;4955009;28;20041;-77
2023/04/06 05:07:28;;;;;;;11.93;4.68;;;;;;;6.99;39.57;101094.50;4951864;28;20053;-78
2023/04/06 05:10:23;;;;;;;13.38;5.40;;;;;;;7.15;39.73;101090.59;4963685;28;20042;-78
2023/04/06 05:13:23;;;;;;;12.02;5.93;;;;;;;7.20;39.49;101085.97;4950100;28;20050;-78
2023/04/06 05:16:18;;;;;;;6.55;4.28;;;;;;;7.13;39.32;101082.78;4959661;28;20046;-78
2023/04/06 05:19:11;;;;;;;22.70;6.28;;;;;;;7.20;39.70;101085.16;4963544;28;20055;-78
2023/04/06 05:22:08;;;;;;;10.77;5.18;;;;;;;7.27;39.00;101085.63;4954750;29;20046;-78
2023/04/06 05:25:04;;;;;;;12.75;5.03;;;;;;;7.27;38.78;101096.44;4948368;28;20533;-79
2023/04/06 05:27:59;;;;;;;18.08;6.75;;;;;;;7.36;38.51;101099.38;4952978;29;20069;-77
2023/04/06 05:30:57;;;;;;;9.63;5.85;;;;;;;7.41;38.38;101096.63;4955750;28;20525;-76
2023/04/06 05:33:49;;;;;;;13.65;4.78;;;;;;;7.37;38.65;101098.25;4953571;29;20073;-77
2023/04/06 05:36:46;;;;;;;16.13;6.65;;;;;;;7.46;38.39;101102.78;4958846;28;20422;-78
2023/04/06 05:39:45;;;;;;;13.73;5.82;;;;;;;7.56;37.90;101102.69;4955624;28;20059;-78
2023/04/06 05:42:42;;;;;;;16.25;5.65;;;;;;;7.63;38.21;101113.16;4953527;29;20047;-77
2023/04/06 05:45:37;;;;;;;16.75;5.53;;;;;;;7.60;38.59;101111.03;4957418;28;20526;-79
2023/04/06 05:48:29;;;;;;;22.58;6.85;;;;;;;7.70;38.14;101109.03;4959607;28;20050;-79
2023/04/06 05:51:24;;;;;;;12.73;4.95;;;;;;;7.83;39.58;101121.06;4944769;29;20046;-80
2023/04/06 05:54:18;;;;;;;14.63;5.05;;;;;;;7.99;39.55;101111.69;4958773;28;20050;-80
2023/04/06 05:57:13;;;;;;;34.22;9.18;;;;;;;8.07;39.46;101112.97;4969113;28;20049;-76
2023/04/06 06:00:09;;;;;;;20.30;5.68;;;;;;;8.37;40.18;101114.53;4944879;29;20050;-77
2023/04/06 06:02:59;;;;;;;23.73;6.07;;;;;;;8.47;39.70;101117.13;4954660;28;20050;-76
2023/04/06 06:05:54;;;;;;;20.35;6.82;;;;;;;8.84;38.57;101114.41;4967904;28;20046;-77
2023/04/06 06:08:55;;;;;;;28.60;8.23;;;;;;;9.19;37.98;101123.94;4952709;28;20050;-76
2023/04/06 06:11:48;;;;;;;28.25;6.43;;;;;;;9.90;36.68;101114.56;4970094;28;20397;-77
2023/04/06 06:14:42;;;;;;;16.48;6.28;;;;;;;10.36;35.82;101113.66;4959013;28;20058;-75
2023/04/06 06:17:37;;;;;;;26.75;7.28;;;;;;;11.14;33.62;101118.69;4956257;28;20050;-76
2023/04/06 06:20:31;;;;;;;38.58;7.85;;;;;;;11.68;34.19;101116.81;4959636;28;20046;-74
2023/04/06 06:23:27;;;;;;;20.27;7.18;;;;;;;11.79;33.23;101129.06;4944401;29;20046;-75
2023/04/06 06:26:22;;;;;;;34.67;9.48;;;;;;;11.81;33.61;101126.81;4941772;29;20458;-76
2023/04/06 06:29:14;;;;;;;24.67;7.65;;;;;;;12.05;33.39;101121.00;4955586;28;20042;-77
2023/04/06 06:32:08;;;;;;;17.40;6.53;;;;;;;11.83;33.49;101119.97;4950766;28;20058;-75
2023/04/06 06:35:03;;;;;;;12.90;4.97;;;;;;;11.22;34.06;101123.41;4972050;28;20046;-75
2023/04/06 06:37:58;;;;;;;20.42;6.32;;;;;;;11.47;34.51;101116.53;4956970;28;20054;-75
2023/04/06 06:40:53;;;;;;;14.37;5.60;;;;;;;11.07;35.65;101118.34;4941051;29;20542;-75
2023/04/06 06:43:49;;;;;;;21.98;5.40;;;;;;;10.59;36.43;101118.06;4949718;28;20046;-77
2023/04/06 06:46:43;;;;;;;14.20;4.47;;;;;;;10.75;35.38;101116.63;4966527;28;20151;-77
2023/04/06 06:49:38;;;;;;;16.20;4.43;;;;;;;10.13;36.14;101124.41;4954708;28;20058;-77
2023/04/06 06:52:33;;;;;;;33.90;7.63;;;;;;;11.43;40.06;101129.94;4970608;28;20046;-75
2023/04/06 06:55:27;;;;;;;15.38;4.95;;;;;;;12.89;36.80;101126.16;4956257;28;20050;-78
2023/04/06 06:58:20;;;;;;;10.40;3.40;;;;;;;12.84;33.57;101136.13;4967243;28;20067;-78
2023/04/06 07:01:11;;;;;;;12.85;5.50;;;;;;;11.86;32.16;101129.41;4941468;29;20070;-78
2023/04/06 07:04:04;;;;;;;12.40;4.47;;;;;;;11.30;31.91;101125.38;4975214;28;20050;-79
2023/04/06 07:06:59;;;;;;;7.15;3.25;;;;;;;11.39;31.80;101118.06;4960557;28;20054;-79
2023/04/06 07:09:51;;;;;;;9.93;4.57;;;;;;;11.49;31.92;101122.44;4955806;28;20046;-78
2023/04/06 07:12:45;;;;;;;15.57;4.95;;;;;;;11.33;31.29;101123.94;4957977;29;20050;-79
2023/04/06 07:15:38;;;;;;;6.40;3.05;;;;;;;11.06;31.82;101120.25;4968946;28;20050;-79
2023/04/06 07:18:32;;;;;;;10.70;4.00;;;;;;;11.07;31.41;101123.78;4957102;28;20046;-79
2023/04/06 07:21:27;;;;;;;11.30;4.10;;;;;;;10.67;31.69;101120.84;4960198;28;20047;-78
2023/04/06 07:24:22;;;;;;;11.23;5.03;;;;;;;10.84;31.52;101116.69;4953880;28;20112;-79
2023/04/06 07:27:16;;;;;;;6.27;3.00;;;;;;;10.85;31.36;101121.00;4949445;28;20051;-80
2023/04/06 07:30:12;;;;;;;9.48;3.50;;;;;;;10.56;31.98;101118.69;4954631;28;20271;-79
2023/04/06 07:33:04;;;;;;;;;;;;;;;10.95;32.14;101128.94;4963170;28;20042;-78
2023/04/06 07:35:58;;;;;;;26.73;5.40;;;;;;;17.46;22.98;101136.44;4954162;28;19914;-79
2023/04/06 07:38:53;;;;;;;6.93;3.97;;;;;;;20.69;19.30;101137.78;4953786;28;20053;-78
2023/04/06 07:41:48;;;;;;;6.13;4.10;;;;;;;22.59;17.09;101143.78;4960786;28;20129;-78
2023/04/06 07:44:40;;;;;;;12.43;4.63;;;;;;;22.20;17.49;101145.47;4968782;28;20412;-80
2023/04/06 07:47:35;;;;;;;13.73;4.63;;;;;;;24.33;15.60;101138.81;4959140;28;20055;-80
2023/04/06 07:50:29;;;;;;;15.63;3.70;;;;;;;25.96;14.16;101139.72;4956137;28;20042;-80
2023/04/06 07:53:24;;;;;;;5.63;3.30;;;;;;;25.58;14.60;101140.81;4938144;28;20534;-80
2023/04/06 07:56:18;;;;;;;5.63;3.22;;;;;;;24.96;14.27;101135.09;4936502;29;20070;-79
2023/04/06 07:59:13;;;;;;;13.63;4.18;;;;;;;25.58;14.06;101140.81;4936336;29;20410;-80
2023/04/06 08:02:08;;;;;;;8.43;4.47;;;;;;;25.82;13.79;101139.84;4948529;28;20050;-80
2023/04/06 08:05:02;;;;;;;15.27;3.80;;;;;;;25.24;13.87;101143.34;4953328;28;20055;-79
2023/04/06 08:07:54;;;;;;;12.90;4.07;;;;;;;24.99;14.16;101137.09;4936829;29;20051;-79
2023/04/06 08:10:46;;;;;;;10.60;3.67;;;;;;;25.79;13.75;101145.44;4940161;29;20507;-78
2023/04/06 08:13:40;;;;;;;8.75;4.18;;;;;;;26.15;13.75;101141.19;4937176;29;20051;-79
2023/04/06 08:16:35;;;;;;;8.57;4.00;;;;;;;26.47;13.12;101137.31;4936088;29;20046;-79
2023/04/06 08:19:30;;;;;;;33.15;5.78;;;;;;;25.92;13.18;101146.53;4958917;28;20046;-82
2023/04/06 08:22:22;;;;;;;6.07;3.55;;;;;;;28.68;11.55;101145.00;4946532;29;20059;-81
2023/04/06 08:25:15;;;;;;;6.95;3.75;;;;;;;24.17;14.15;101141.97;4952011;28;20046;-82
2023/04/06 08:28:09;;;;;;;7.45;3.75;;;;;;;26.78;12.78;101150.94;4962448;29;20067;-81
2023/04/06 08:31:05;;;;;;;8.75;4.15;;;;;;;26.69;12.43;101142.28;4953198;28;20530;-82
2023/04/06 08:34:00;;;;;;;20.13;4.75;;;;;;;28.45;10.86;101143.03;4969981;28;20050;-82
2023/04/06 08:36:52;;;;;;;70.10;14.32;;;;;;;28.58;10.59;101138.41;4957741;28;20066;-79
2023/04/06 08:39:46;;;;;;;73.32;14.38;;;;;;;28.00;10.80;101139.78;4959143;28;20047;-83
2023/04/06 08:42:46;;;;;;;77.18;15.80;;;;;;;27.95;10.85;101140.25;4973503;28;20054;-82
2023/04/06 08:45:40;;;;;;;1999.90;944.47;;;;;;;28.24;10.98;101143.44;4960347;28;20043;-82
2023/04/06 08:48:35;;;;;;;1999.90;860.22;;;;;;;27.83;10.58;101141.66;4957118;28;20035;-80
2023/04/06 08:51:29;;;;;;;1999.90;999.90;;;;;;;28.52;10.40;101139.31;4982220;28;20039;-81
2023/04/06 08:54:24;;;;;;;1999.90;395.80;;;;;;;29.98;9.55;101129.44;4963406;29;20039;-82
2023/04/06 08:57:13;;;;;;;;;;;;;;;28.80;10.33;101124.81;4965431;29;20043;-80
2023/04/06 09:00:11;;;;;;;1923.75;275.38;;;;;;;29.09;10.06;101120.22;4962165;29;19914;-81
2023/04/06 09:03:05;;;;;;;13.45;12.35;;;;;;;28.27;10.57;101120.97;4966381;29;20043;-81
2023/04/06 09:06:04;;;;;;;60.67;10.35;;;;;;;29.20;9.80;101111.59;4959760;28;20065;-81
2023/04/06 09:08:59;;;;;;;5.25;4.32;;;;;;;28.53;10.23;101121.31;4954692;28;20511;-80
2023/04/06 09:11:52;;;;;;;10.43;3.58;;;;;;;29.54;9.25;101116.84;4959616;28;20047;-82
2023/04/06 09:14:47;;;;;;;8.63;4.03;;;;;;;27.99;10.48;101108.22;4955555;28;20046;-82
2023/04/06 09:17:39;;;;;;;8.80;3.75;;;;;;;28.49;9.91;101104.59;4960418;28;20046;-81
2023/04/06 09:20:31;;;;;;;10.90;3.08;;;;;;;27.84;10.74;101109.69;4955272;28;20051;-80
2023/04/06 09:23:21;;;;;;;5.95;3.05;;;;;;;29.08;9.89;101101.03;4960626;29;20062;-82
2023/04/06 09:26:19;;;;;;;5.22;2.65;;;;;;;29.84;9.17;101108.13;4963216;28;20050;-81
2023/04/06 09:29:23;;;;;;;6.15;2.90;;;;;;;29.21;9.79;101099.91;4964653;28;20549;-81
2023/04/06 09:32:18;;;;;;;4.78;2.67;;;;;;;29.41;9.00;101093.53;4963636;28;20530;-83
2023/04/06 09:35:21;;;;;;;10.02;3.03;;;;;;;28.74;9.04;101099.34;4960906;28;20059;-82
2023/04/06 09:38:16;;;;;;;7.80;3.15;;;;;;;26.86;10.61;101090.28;4959035;28;20058;-83
2023/04/06 09:41:08;;;;;;;3.40;2.67;;;;;;;28.47;9.47;101101.44;4960246;28;20050;-82
2023/04/06 09:44:26;;;;;;;11.02;2.55;;;;;;;28.69;8.84;101085.81;4959334;29;20534;-79
2023/04/06 09:47:20;;;;;;;4.13;2.63;;;;;;;27.16;10.26;101076.34;4958197;28;20399;-79
2023/04/06 09:50:16;;;;;;;6.32;3.25;;;;;;;27.44;10.53;101086.31;4958009;28;20323;-80
2023/04/06 09:53:06;;;;;;;11.50;3.40;;;;;;;28.38;9.56;101084.41;4970216;28;20050;-80
2023/04/06 09:56:05;;;;;;;7.93;3.08;;;;;;;29.30;9.27;101083.34;4959322;28;20074;-80
2023/04/06 09:59:04;;;;;;;7.28;3.28;;;;;;;28.35;10.42;101065.66;5010262;22;20552;-79
2023/04/06 10:01:58;;;;;;;11.35;3.15;;;;;;;28.85;9.38;101077.50;4984954;28;20553;-79
2023/04/06 10:04:59;;;;;;;9.50;3.55;;;;;;;28.32;9.88;101047.75;4976248;28;20046;-79
2023/04/06 10:07:56;;;;;;;4.95;3.55;;;;;;;27.96;10.24;101057.97;4976512;28;20524;-78
2023/04/06 10:10:50;;;;;;;9.05;3.38;;;;;;;27.90;10.44;101057.66;4966177;28;20398;-80
2023/04/06 10:13:42;;;;;;;7.00;3.28;;;;;;;31.19;8.53;101057.50;4964421;28;20045;-78
2023/04/06 10:16:38;;;;;;;7.97;3.28;;;;;;;30.58;8.98;101060.50;4973981;28;20402;-80
2023/04/06 10:19:36;;;;;;;4.32;3.63;;;;;;;29.91;8.60;101051.88;4983671;28;20042;-79
2023/04/06 10:22:39;;;;;;;5.90;3.70;;;;;;;31.64;8.09;101051.69;4990227;28;20530;-79
2023/04/06 10:25:37;;;;;;;6.00;3.83;;;;;;;30.76;9.34;101045.97;4993616;28;20114;-78
2023/04/06 10:28:35;;;;;;;8.35;4.25;;;;;;;31.72;8.57;101053.03;4964661;28;20114;-80
2023/04/06 10:31:31;;;;;;;5.75;4.03;;;;;;;34.05;7.09;101044.59;4980115;28;20041;-78
2023/04/06 10:34:36;;;;;;;6.57;3.38;;;;;;;34.96;6.79;101048.16;4991253;28;20415;-81
2023/04/06 10:37:29;;;;;;;4.70;3.53;;;;;;;33.80;7.08;101037.19;4972033;28;20058;-81
2023/04/06 10:40:31;;;;;;;4.80;3.45;;;;;;;32.86;7.26;101032.91;4970715;28;20046;-79
2023/04/06 10:43:23;;;;;;;7.80;3.92;;;;;;;32.36;7.95;101033.13;4967716;28;20041;-78
2023/04/06 10:46:27;;;;;;;5.18;3.38;;;;;;;32.11;7.81;101032.00;4957341;28;20054;-79
2023/04/06 10:49:19;;;;;;;8.90;3.20;;;;;;;31.91;7.51;101031.47;4970205;28;20516;-79
2023/04/06 10:52:14;;;;;;;5.10;3.17;;;;;;;32.22;8.07;101026.78;4973650;28;20517;-77
2023/04/06 10:55:07;;;;;;;;;;;;;;;32.72;7.58;101022.16;4964524;28;20054;-80
2023/04/06 10:58:01;;;;;;;7.32;3.70;;;;;;;31.64;8.60;101025.59;4958096;28;19919;-77
2023/04/06 11:00:57;;;;;;;10.15;4.00;;;;;;;34.00;6.72;101022.63;4977420;28;20042;-77
2023/04/06 11:03:57;;;;;;;11.43;4.53;;;;;;;33.65;7.07;101007.97;4955104;28;20422;-79
2023/04/06 11:06:55;;;;;;;6.03;3.70;;;;;;;32.98;7.49;101012.28;4958351;28;20053;-79
2023/04/06 11:09:54;;;;;;;6.50;3.88;;;;;;;31.50;8.23;101007.13;4971505;28;20046;-77
2023/04/06 11:12:54;;;;;;;12.55;4.28;;;;;;;26.11;12.61;101000.25;4973661;28;20050;-82
2023/04/06 11:15:49;;;;;;;6.30;4.20;;;;;;;23.66;14.07;100990.38;4971266;28;20423;-80
2023/04/06 11:18:51;;;;;;;7.03;4.10;;;;;;;22.10;15.47;100984.31;4978301;28;20521;-82
2023/04/06 11:21:47;;;;;;;6.40;4.45;;;;;;;21.44;16.12;100974.31;4984000;28;20533;-82
2023/04/06 11:24:39;;;;;;;6.03;4.35;;;;;;;21.21;16.38;100974.50;4981179;28;20526;-82
2023/04/06 11:27:31;;;;;;;12.60;4.90;;;;;;;20.52;18.13;100953.97;5000433;28;20515;-83
2023/04/06 11:30:25;;;;;;;6.45;4.53;;;;;;;19.90;17.92;100958.25;4986241;28;20081;-80
2023/04/06 11:33:24;;;;;;;11.80;4.57;;;;;;;19.76;18.55;100956.06;4980262;28;20042;-82
2023/04/06 11:36:19;;;;;;;7.13;4.32;;;;;;;19.45;18.85;100943.41;4986417;28;20070;-82
2023/04/06 11:39:14;;;;;;;6.65;5.03;;;;;;;19.38;18.44;100956.22;4973992;28;20054;-82
2023/04/06 11:42:09;;;;;;;8.10;4.60;;;;;;;19.31;19.03;100945.88;4965107;28;20115;-82
2023/04/06 11:45:02;;;;;;;7.68;4.53;;;;;;;19.27;19.52;100949.72;4982147;28;20054;-81
2023/04/06 11:48:05;;;;;;;7.80;4.97;;;;;;;18.90;19.68;100941.97;4977169;28;20418;-81
2023/04/06 11:51:04;;;;;;;11.85;4.75;;;;;;;18.90;19.83;100938.44;4980829;28;20069;-82
2023/04/06 11:53:57;;;;;;;6.10;5.10;;;;;;;18.74;19.59;100939.31;4977389;28;20115;-81
2023/04/06 11:56:51;;;;;;;10.52;4.93;;;;;;;18.74;19.82;100933.81;4974769;28;20066;-79
2023/04/06 11:59:46;;;;;;;11.70;5.32;;;;;;;18.55;20.23;100928.34;4979447;28;20415;-82
2023/04/06 12:02:36;;;;;;;7.30;4.85;;;;;;;18.42;20.11;100921.38;4966291;28;20041;-82
2023/04/06 12:05:28;;;;;;;6.97;4.95;;;;;;;18.69;20.47;100927.84;4984631;28;20114;-82
2023/04/06 12:08:25;;;;;;;7.05;4.18;;;;;;;18.70;20.45;100912.88;4968682;28;20050;-82
2023/04/06 12:11:19;;;;;;;11.38;5.25;;;;;;;18.57;20.53;100906.75;4984322;28;20050;-82
2023/04/06 12:14:14;;;;;;;15.15;4.68;;;;;;;18.64;20.73;100904.09;4989602;28;20045;-81
2023/04/06 12:17:08;;;;;;;8.30;5.57;;;;;;;18.53;20.18;100897.59;4977967;28;20054;-81
2023/04/06 12:20:03;;;;;;;10.23;5.97;;;;;;;18.54;20.36;100901.19;4973957;28;20812;-81
2023/04/06 12:22:57;;;;;;;10.25;5.00;;;;;;;18.59;20.93;100895.38;4976370;28;20297;-81
2023/04/06 12:25:52;;;;;;;7.38;5.03;;;;;;;18.57;20.84;100887.47;4972163;28;20058;-81
2023/04/06 12:28:47;;;;;;;7.03;5.57;;;;;;;18.51;21.38;100897.16;4958100;28;20058;-82
2023/04/06 12:31:42;;;;;;;9.57;5.53;;;;;;;18.30;20.68;100888.47;4978929;28;20517;-81
2023/04/06 12:34:37;;;;;;;6.40;4.65;;;;;;;18.51;20.26;100885.34;4982117;28;20053;-80
2023/04/06 12:37:31;;;;;;;28.57;5.70;;;;;;;18.31;20.19;100879.06;4974375;28;20049;-81
2023/04/06 12:40:26;;;;;;;19.67;5.80;;;;;;;18.43;20.35;100875.34;4972082;28;20051;-81
2023/04/06 12:43:20;;;;;;;9.02;6.43;;;;;;;18.52;20.65;100873.97;4958080;28;20046;-81
2023/04/06 12:46:15;;;;;;;12.80;6.30;;;;;;;18.47;21.25;100877.00;4962861;28;20057;-81
2023/04/06 12:49:09;;;;;;;15.70;5.60;;;;;;;18.70;20.91;100869.59;4959212;28;20046;-80
2023/04/06 12:52:01;;;;;;;7.22;5.60;;;;;;;18.55;20.24;100867.75;4973414;28;20270;-81
2023/04/06 12:54:51;;;;;;;8.48;5.45;;;;;;;18.52;20.73;100862.16;4963447;28;20053;-81
2023/04/06 12:57:46;;;;;;;12.15;4.90;;;;;;;18.44;20.66;100866.72;4981889;28;20050;-81
2023/04/06 13:00:41;;;;;;;8.13;5.38;;;;;;;18.48;20.96;100848.31;4976981;28;20045;-81
2023/04/06 13:03:36;;;;;;;13.00;5.90;;;;;;;18.51;21.11;100850.31;4977142;28;20058;-81
2023/04/06 13:06:28;;;;;;;14.48;4.93;;;;;;;18.29;21.13;100848.31;4980487;28;20089;-80
2023/04/06 13:09:22;;;;;;;10.75;5.15;;;;;;;18.40;20.96;100849.31;4977835;28;20057;-81
2023/04/06 13:12:12;;;;;;;10.05;5.20;;;;;;;18.36;21.16;100837.47;4977766;28;20050;-81
2023/04/06 13:15:07;;;;;;;10.68;5.90;;;;;;;18.39;20.97;100837.50;4979310;28;20054;-81
2023/04/06 13:18:01;;;;;;;14.25;5.70;;;;;;;18.34;20.85;100823.25;4963353;28;20521;-81
2023/04/06 13:20:56;;;;;;;6.78;4.85;;;;;;;18.26;21.32;100833.34;4976087;28;20046;-80
2023/04/06 13:23:48;;;;;;;12.32;5.32;;;;;;;18.50;20.94;100831.41;4976073;28;20561;-80
2023/04/06 13:26:40;;;;;;;15.65;5.22;;;;;;;18.30;21.17;100822.38;4976217;28;20065;-81
2023/04/06 13:29:34;;;;;;;9.32;5.35;;;;;;;18.31;21.32;100823.97;4975752;28;20050;-81
2023/04/06 13:32:24;;;;;;;11.57;5.10;;;;;;;18.15;21.04;100815.03;4977724;28;20050;-80
2023/04/06 13:35:19;;;;;;;11.00;4.75;;;;;;;18.18;21.12;100822.56;4966996;28;20633;-80
2023/04/06 13:38:11;;;;;;;8.73;5.50;;;;;;;18.28;21.03;100814.50;4964994;28;20046;-80